createdAt,value
2022-10-14T00:01:15.122Z,69.03
2022-10-14T00:03:43.142Z,68.60
2022-10-14T00:06:18.943Z,68.34
2022-10-14T00:08:47.657Z,68.16
2022-10-14T00:11:23.322Z,68.39
2022-10-14T00:13:54.353Z,68.18
2022-10-14T00:16:25.164Z,68.71
2022-10-14T00:18:52.379Z,69.52
2022-10-14T00:21:20.275Z,68.75
2022-10-14T00:23:47.449Z,69.59
2022-10-14T00:26:17.215Z,69.28
2022-10-14T00:28:44.880Z,68.42
2022-10-14T00:31:11.973Z,68.82
2022-10-14T00:33:39.134Z,68.64
2022-10-14T00:36:07.937Z,68.75
2022-10-14T00:38:36.253Z,68.54
2022-10-14T00:41:03.818Z,68.41
2022-10-14T00:43:53.946Z,68.58
2022-10-14T00:46:21.401Z,67.90
2022-10-14T00:48:54.688Z,67.60
2022-10-14T00:51:22.141Z,68.50
2022-10-14T00:53:51.168Z,67.87
2022-10-14T00:56:23.538Z,68.07
2022-10-14T00:58:51.936Z,68.18
2022-10-14T01:01:19.081Z,67.95
2022-10-14T01:03:46.361Z,68.74
2022-10-14T01:06:36.710Z,69.05
2022-10-14T01:09:19.363Z,70.14
2022-10-14T01:12:09.814Z,69.87
2022-10-14T01:14:59.763Z,71.05
2022-10-14T01:17:50.133Z,70.63
2022-10-14T01:20:17.176Z,69.64
2022-10-14T01:23:27.178Z,69.89
2022-10-14T01:26:47.848Z,69.50
2022-10-14T01:29:48.365Z,69.74
2022-10-14T01:32:27.305Z,69.97
2022-10-14T01:35:36.139Z,69.60
2022-10-14T01:38:17.661Z,69.05
2022-10-14T01:40:55.261Z,68.59
2022-10-14T01:43:25.714Z,68.46
2022-10-14T01:45:55.833Z,69.50
2022-10-14T01:48:28.155Z,69.15
2022-10-14T01:50:59.967Z,68.46
2022-10-14T01:53:32.781Z,68.25
2022-10-14T01:56:01.430Z,68.08
2022-10-14T01:58:34.376Z,68.19
2022-10-14T02:01:04.801Z,68.40
2022-10-14T02:03:42.246Z,69.13
2022-10-14T02:06:23.021Z,68.63
2022-10-14T02:09:03.680Z,68.14
2022-10-14T02:11:51.227Z,67.77
2022-10-14T02:15:13.799Z,67.78
2022-10-14T02:18:03.640Z,66.88
2022-10-14T02:20:47.555Z,67.58
2022-10-14T02:23:41.695Z,66.78
2022-10-14T02:26:10.044Z,67.57
2022-10-14T02:28:38.257Z,66.97
2022-10-14T02:31:10.786Z,67.45
2022-10-14T02:33:42.055Z,67.15
2022-10-14T02:36:12.410Z,67.53
2022-10-14T02:38:41.371Z,67.77
2022-10-14T02:41:14.847Z,68.00
2022-10-14T02:43:42.038Z,68.40
2022-10-14T02:46:09.176Z,67.63
2022-10-14T02:48:36.612Z,68.30
2022-10-14T02:51:03.817Z,68.05
2022-10-14T02:53:30.951Z,67.93
2022-10-14T02:55:59.772Z,67.26
2022-10-14T02:58:26.952Z,68.84
2022-10-14T03:00:56.726Z,68.22
2022-10-14T03:03:25.943Z,68.74
2022-10-14T03:05:53.062Z,68.70
2022-10-14T03:08:21.159Z,68.36
2022-10-14T03:10:48.968Z,68.31
2022-10-14T03:13:16.582Z,68.95
2022-10-14T03:15:50.587Z,68.83
2022-10-14T03:18:19.376Z,68.46
2022-10-14T03:20:49.240Z,68.45
2022-10-14T03:23:21.724Z,68.47
2022-10-14T03:25:51.399Z,68.19
2022-10-14T03:28:26.422Z,68.10
2022-10-14T03:31:13.843Z,68.49
2022-10-14T03:34:01.130Z,68.81
2022-10-14T03:36:29.736Z,69.42
2022-10-14T03:38:58.121Z,69.74
2022-10-14T03:41:47.708Z,68.69
2022-10-14T03:44:18.535Z,69.60
2022-10-14T03:47:05.659Z,68.70
2022-10-14T03:49:34.354Z,69.30
2022-10-14T03:52:09.564Z,68.86
2022-10-14T03:54:38.844Z,69.33
2022-10-14T03:57:06.235Z,69.18
2022-10-14T03:59:40.862Z,69.10
2022-10-14T04:02:08.253Z,68.85
2022-10-14T04:04:35.414Z,69.48
2022-10-14T04:07:03.125Z,69.16
2022-10-14T04:09:31.034Z,69.18
2022-10-14T04:11:58.225Z,68.88
2022-10-14T04:14:48.411Z,69.68
2022-10-14T04:17:15.671Z,69.47
2022-10-14T04:19:43.848Z,69.39
2022-10-14T04:22:13.965Z,68.74
2022-10-14T04:24:41.039Z,69.00
2022-10-14T04:27:08.303Z,68.40
2022-10-14T04:29:44.754Z,68.56
2022-10-14T04:32:18.104Z,68.63
2022-10-14T04:34:45.835Z,68.55
2022-10-14T04:37:16.960Z,69.01
2022-10-14T04:39:49.969Z,68.98
2022-10-14T04:42:17.707Z,69.61
2022-10-14T04:44:48.816Z,70.03
2022-10-14T04:47:17.733Z,69.58
2022-10-14T04:49:50.339Z,69.72
2022-10-14T04:52:20.902Z,69.36
2022-10-14T04:54:56.665Z,68.96
2022-10-14T04:57:34.227Z,68.24
2022-10-14T05:00:02.525Z,68.69
2022-10-14T05:02:52.665Z,67.84
2022-10-14T05:05:23.805Z,68.01
2022-10-14T05:07:56.080Z,67.12
2022-10-14T05:10:34.445Z,67.42
2022-10-14T05:13:04.215Z,67.42
2022-10-14T05:15:37.003Z,66.87
2022-10-14T05:18:12.679Z,66.72
2022-10-14T05:20:53.766Z,65.75
2022-10-14T05:23:23.460Z,65.77
2022-10-14T05:25:52.070Z,65.60
2022-10-14T05:28:20.297Z,65.25
2022-10-14T05:30:49.993Z,64.91
2022-10-14T05:33:18.681Z,65.18
2022-10-14T05:35:58.496Z,65.27
2022-10-14T05:38:26.819Z,66.21
2022-10-14T05:40:55.740Z,66.26
2022-10-14T05:43:32.024Z,67.58
2022-10-14T05:46:01.989Z,66.83
2022-10-14T05:48:34.639Z,66.41
2022-10-14T05:51:03.453Z,66.37
2022-10-14T05:53:33.441Z,66.26
2022-10-14T05:56:09.554Z,65.81
2022-10-14T05:58:39.056Z,66.64
2022-10-14T06:01:10.072Z,66.62
2022-10-14T06:03:40.225Z,65.76
2022-10-14T06:06:14.844Z,65.36
2022-10-14T06:08:43.133Z,65.31
2022-10-14T06:11:10.234Z,65.46
2022-10-14T06:13:37.726Z,63.77
2022-10-14T06:16:10.218Z,63.53
2022-10-14T06:18:38.008Z,63.77
2022-10-14T06:21:07.693Z,63.03
2022-10-14T06:23:44.002Z,63.39
2022-10-14T06:26:14.894Z,62.48
2022-10-14T06:29:04.925Z,61.94
2022-10-14T06:31:35.172Z,62.39
2022-10-14T06:34:08.028Z,61.36
2022-10-14T06:36:36.868Z,61.73
2022-10-14T06:39:05.312Z,60.42
2022-10-14T06:41:33.034Z,61.13
2022-10-14T06:44:00.214Z,60.64
2022-10-14T06:46:27.479Z,60.86
2022-10-14T06:48:54.682Z,61.24
2022-10-14T06:51:21.823Z,61.30
2022-10-14T06:53:48.906Z,59.85
2022-10-14T06:56:16.039Z,59.69
2022-10-14T06:58:43.173Z,58.92
2022-10-14T07:01:10.235Z,58.67
2022-10-14T07:03:39.182Z,57.35
2022-10-14T07:06:07.313Z,57.88
2022-10-14T07:08:35.027Z,54.93
2022-10-14T07:11:02.160Z,52.95
2022-10-14T07:13:29.373Z,52.35
2022-10-14T07:15:56.667Z,52.40
2022-10-14T07:18:23.863Z,52.79
2022-10-14T07:20:51.004Z,52.65
2022-10-14T07:23:18.375Z,52.65
2022-10-14T07:25:47.771Z,52.47
2022-10-14T07:28:14.966Z,51.52
2022-10-14T07:30:42.041Z,50.13
2022-10-14T07:33:09.141Z,49.85
2022-10-14T07:35:39.161Z,49.00
2022-10-14T07:38:06.250Z,51.44
2022-10-14T07:40:33.408Z,50.19
2022-10-14T07:43:00.485Z,50.72
2022-10-14T07:45:27.547Z,50.52
2022-10-14T07:47:54.672Z,49.80
2022-10-14T07:50:21.779Z,50.55
2022-10-14T07:52:49.118Z,49.22
2022-10-14T07:55:16.365Z,48.76
2022-10-14T07:57:43.645Z,49.82
2022-10-14T08:00:11.378Z,50.45
2022-10-14T08:02:41.303Z,51.01
2022-10-14T08:05:33.017Z,49.29
2022-10-14T08:07:55.452Z,50.20
2022-10-14T08:10:22.594Z,51.37
2022-10-14T08:12:50.251Z,51.79
2022-10-14T08:15:17.431Z,51.09
2022-10-14T08:17:44.530Z,50.47
2022-10-14T08:20:12.611Z,48.98
2022-10-14T08:22:39.704Z,50.33
2022-10-14T08:25:07.150Z,49.29
2022-10-14T08:27:34.191Z,49.53
2022-10-14T08:30:01.740Z,47.99
2022-10-14T08:32:31.302Z,46.74
2022-10-14T08:34:58.338Z,47.59
2022-10-14T08:37:25.548Z,47.30
2022-10-14T08:39:52.650Z,48.02
2022-10-14T08:42:58.743Z,48.38
2022-10-14T08:45:49.926Z,47.72
2022-10-14T08:48:21.997Z,46.36
2022-10-14T08:50:58.763Z,48.52
2022-10-14T08:53:33.260Z,49.09
2022-10-14T08:56:01.901Z,49.63
2022-10-14T08:58:51.065Z,50.21
2022-10-14T09:01:33.675Z,49.13
2022-10-14T09:04:06.905Z,48.32
2022-10-14T09:06:38.519Z,48.00
2022-10-14T09:09:30.756Z,48.43
2022-10-14T09:12:05.148Z,47.68
2022-10-14T09:14:37.567Z,47.88
2022-10-14T09:17:13.995Z,48.76
2022-10-14T09:19:47.067Z,49.63
2022-10-14T09:22:15.748Z,49.44
2022-10-14T09:24:49.815Z,50.83
2022-10-14T09:27:21.951Z,50.11
2022-10-14T09:29:59.152Z,49.71
2022-10-14T09:32:55.685Z,49.84
2022-10-14T09:35:33.810Z,50.78
2022-10-14T09:38:01.037Z,51.51
2022-10-14T09:40:33.670Z,53.06
2022-10-14T09:43:16.002Z,53.04
2022-10-14T09:46:07.971Z,53.13
2022-10-14T09:48:51.959Z,52.93
2022-10-14T09:51:36.935Z,52.55
2022-10-14T09:54:05.241Z,50.98
2022-10-14T09:56:45.324Z,51.90
2022-10-14T09:59:19.725Z,52.31
2022-10-14T10:02:02.095Z,52.18
2022-10-14T10:04:31.983Z,52.20
2022-10-14T10:07:26.466Z,52.51
2022-10-14T10:09:58.860Z,52.29
2022-10-14T10:12:37.639Z,52.79
2022-10-14T10:15:09.057Z,52.48
2022-10-14T10:17:40.793Z,52.34
2022-10-14T10:20:20.327Z,52.93
2022-10-14T10:22:47.504Z,53.35
2022-10-14T10:25:14.527Z,53.09
2022-10-14T10:27:52.543Z,51.92
2022-10-14T10:30:28.095Z,52.75
2022-10-14T10:33:15.934Z,51.77
2022-10-14T10:36:26.393Z,52.29
2022-10-14T10:39:05.853Z,52.61
2022-10-14T10:42:00.697Z,52.84
2022-10-14T10:45:21.012Z,52.71
2022-10-14T10:48:06.558Z,52.97
2022-10-14T10:51:17.028Z,53.35
2022-10-14T10:53:47.041Z,53.45
2022-10-14T10:56:20.308Z,54.14
2022-10-14T10:59:17.327Z,55.00
2022-10-14T11:02:24.839Z,53.48
2022-10-14T11:05:30.890Z,53.52
2022-10-14T11:08:47.614Z,53.10
2022-10-14T11:11:45.129Z,52.79
2022-10-14T11:14:31.039Z,53.00
2022-10-14T11:17:16.450Z,53.66
2022-10-14T11:20:05.680Z,54.03
2022-10-14T11:23:11.760Z,54.35
2022-10-14T11:26:02.696Z,54.50
2022-10-14T11:28:53.781Z,54.82
2022-10-14T11:31:35.387Z,53.63
2022-10-14T11:34:11.335Z,53.66
2022-10-14T11:36:47.922Z,54.30
2022-10-14T11:39:43.478Z,54.59
2022-10-14T11:42:38.680Z,54.36
2022-10-14T11:45:40.631Z,54.63
2022-10-14T11:48:29.440Z,54.89
2022-10-14T11:51:16.087Z,55.21
2022-10-14T11:53:52.197Z,55.27
2022-10-14T11:56:37.393Z,55.90
2022-10-14T11:59:21.355Z,55.12
2022-10-14T12:01:52.188Z,55.38
2022-10-14T12:04:39.340Z,55.47
2022-10-14T12:07:17.907Z,55.79
2022-10-14T12:09:57.411Z,54.71
2022-10-14T12:12:32.471Z,55.67
2022-10-14T12:15:05.877Z,54.93
2022-10-14T12:17:56.090Z,54.32
2022-10-14T12:20:46.124Z,54.87
2022-10-14T12:23:29.900Z,56.49
2022-10-14T12:26:19.837Z,57.13
2022-10-14T12:28:48.028Z,56.23
2022-10-14T12:31:21.696Z,55.73
2022-10-14T12:34:15.991Z,56.91
2022-10-14T12:36:48.776Z,56.42
2022-10-14T12:39:18.654Z,56.13
2022-10-14T12:41:59.352Z,56.66
2022-10-14T12:44:56.306Z,56.50
2022-10-14T12:47:32.032Z,55.94
2022-10-14T12:50:03.089Z,56.01
2022-10-14T12:52:34.144Z,56.03
2022-10-14T12:55:08.511Z,55.87
2022-10-14T12:57:40.204Z,55.01
2022-10-14T13:00:21.510Z,56.29
2022-10-14T13:02:51.413Z,54.88
2022-10-14T13:05:31.078Z,54.44
2022-10-14T13:08:16.121Z,55.36
2022-10-14T13:10:47.284Z,55.41
2022-10-14T13:13:47.834Z,56.04
2022-10-14T13:16:20.904Z,56.35
2022-10-14T13:19:02.507Z,56.81
2022-10-14T13:21:36.430Z,57.28
2022-10-14T13:24:17.984Z,57.55
2022-10-14T13:26:54.410Z,57.35
2022-10-14T13:29:49.433Z,58.05
2022-10-14T13:32:35.358Z,57.81
2022-10-14T13:35:06.145Z,58.37
2022-10-14T13:37:44.813Z,57.99
2022-10-14T13:40:24.497Z,59.42
2022-10-14T13:42:56.883Z,59.36
2022-10-14T13:45:42.195Z,59.76
2022-10-14T13:48:16.990Z,59.75
2022-10-14T13:50:47.035Z,60.00
2022-10-14T13:53:16.895Z,60.01
2022-10-14T13:55:49.175Z,59.74
2022-10-14T13:58:25.150Z,60.62
2022-10-14T14:01:02.481Z,60.54
2022-10-14T14:03:37.002Z,60.47
2022-10-14T14:06:11.500Z,59.66
2022-10-14T14:08:50.292Z,59.83
2022-10-14T14:11:24.049Z,60.03
2022-10-14T14:14:29.870Z,60.71
2022-10-14T14:17:02.898Z,60.09
2022-10-14T14:19:35.622Z,59.66
2022-10-14T14:22:30.508Z,60.66
2022-10-14T14:25:33.966Z,60.77
2022-10-14T14:28:06.082Z,61.21
2022-10-14T14:30:38.915Z,61.36
2022-10-14T14:33:13.721Z,62.10
2022-10-14T14:35:50.412Z,61.95
2022-10-14T14:38:26.127Z,61.96
2022-10-14T14:41:02.235Z,61.33
2022-10-14T14:43:34.585Z,62.30
2022-10-14T14:46:05.456Z,61.76
2022-10-14T14:48:34.183Z,61.52
2022-10-14T14:51:02.038Z,60.81
2022-10-14T14:53:31.969Z,60.19
2022-10-14T14:56:06.820Z,60.38
2022-10-14T14:58:40.502Z,61.68
2022-10-14T15:01:29.611Z,61.62
2022-10-14T15:04:13.587Z,61.36
2022-10-14T15:06:51.763Z,61.98
2022-10-14T15:09:32.259Z,61.96
2022-10-14T15:12:01.965Z,62.69
2022-10-14T15:14:49.970Z,62.25
2022-10-14T15:17:36.944Z,61.63
2022-10-14T15:20:04.094Z,61.51
2022-10-14T15:22:36.386Z,61.32
2022-10-14T15:25:30.906Z,60.48
2022-10-14T15:28:02.852Z,61.95
2022-10-14T15:30:37.397Z,61.13
2022-10-14T15:33:17.917Z,61.18
2022-10-14T15:35:54.277Z,61.79
2022-10-14T15:38:23.159Z,61.10
2022-10-14T15:40:51.043Z,60.78
2022-10-14T15:43:24.958Z,60.65
2022-10-14T15:46:17.066Z,60.78
2022-10-14T15:48:53.032Z,60.44
2022-10-14T15:51:21.688Z,61.35
2022-10-14T15:53:49.152Z,62.00
2022-10-14T15:56:17.314Z,61.87
2022-10-14T15:58:47.339Z,61.48
2022-10-14T16:01:23.897Z,60.67
2022-10-14T16:03:52.420Z,60.34
2022-10-14T16:06:22.686Z,60.57
2022-10-14T16:08:53.212Z,60.60
2022-10-14T16:11:25.599Z,61.24
2022-10-14T16:13:53.315Z,60.95
2022-10-14T16:16:46.636Z,60.94
2022-10-14T16:19:13.832Z,61.37
2022-10-14T16:21:41.058Z,60.62
2022-10-14T16:24:15.222Z,61.48
2022-10-14T16:26:42.390Z,61.99
2022-10-14T16:29:12.186Z,61.65
2022-10-14T16:31:39.302Z,61.73
2022-10-14T16:34:06.396Z,61.33
2022-10-14T16:36:33.644Z,61.61
2022-10-14T16:39:03.457Z,61.60
2022-10-14T16:41:31.073Z,61.26
2022-10-14T16:43:58.280Z,61.78
2022-10-14T16:46:47.714Z,61.40
2022-10-14T16:49:14.895Z,61.11
2022-10-14T16:51:43.076Z,61.85
2022-10-14T16:54:11.128Z,62.01
2022-10-14T16:56:53.328Z,61.85
2022-10-14T16:59:21.855Z,61.93
2022-10-14T17:01:49.480Z,61.97
2022-10-14T17:04:20.322Z,62.29
2022-10-14T17:06:51.990Z,62.61
2022-10-14T17:09:19.875Z,63.04
2022-10-14T17:11:49.802Z,62.82
2022-10-14T17:14:21.900Z,62.80
2022-10-14T17:16:52.344Z,62.93
2022-10-14T17:19:24.005Z,63.25
2022-10-14T17:21:51.238Z,63.16
2022-10-14T17:24:18.406Z,63.00
2022-10-14T17:26:45.752Z,63.25
2022-10-14T17:29:12.905Z,63.89
2022-10-14T17:31:40.108Z,63.88
2022-10-14T17:34:09.923Z,63.88
2022-10-14T17:36:41.725Z,63.28
2022-10-14T17:39:22.824Z,63.06
2022-10-14T17:41:55.460Z,63.68
2022-10-14T17:44:22.565Z,63.76
2022-10-14T17:46:52.752Z,63.02
2022-10-14T17:49:22.641Z,63.29
2022-10-14T17:51:51.091Z,63.84
2022-10-14T17:54:18.207Z,63.23
2022-10-14T17:56:45.338Z,63.45
2022-10-14T17:59:14.378Z,63.94
2022-10-14T18:04:28.849Z,63.81
2022-10-14T18:06:56.215Z,64.17
2022-10-14T18:09:23.341Z,64.39
2022-10-14T18:14:41.206Z,64.11
2022-10-14T18:17:13.243Z,63.97
2022-10-14T18:19:41.479Z,64.67
2022-10-14T18:22:08.914Z,64.93
2022-10-14T18:24:46.659Z,64.79
2022-10-14T18:27:13.717Z,64.68
2022-10-14T18:29:40.932Z,64.97
2022-10-14T18:32:08.110Z,65.20
2022-10-14T18:34:36.864Z,64.99
2022-10-14T18:37:03.949Z,65.01
2022-10-14T18:39:31.112Z,65.99
2022-10-14T18:41:58.205Z,66.00
2022-10-14T18:44:25.557Z,65.97
2022-10-14T18:46:53.045Z,65.66
2022-10-14T18:49:20.160Z,65.17
2022-10-14T18:51:47.232Z,65.13
2022-10-14T18:54:17.135Z,65.11
2022-10-14T18:56:45.341Z,64.60
2022-10-14T18:59:15.307Z,64.23
2022-10-14T19:01:43.164Z,65.02
2022-10-14T19:04:13.118Z,65.44
2022-10-14T19:06:45.980Z,65.10
2022-10-14T19:09:13.979Z,65.31
2022-10-14T19:11:42.248Z,65.61
2022-10-14T19:14:10.011Z,64.73
2022-10-14T19:16:39.052Z,64.96
2022-10-14T19:19:14.389Z,64.93
2022-10-14T19:21:41.654Z,64.81
2022-10-14T19:24:13.408Z,65.38
2022-10-14T19:26:44.125Z,64.50
2022-10-14T19:29:14.164Z,65.08
2022-10-14T19:31:43.658Z,64.51
2022-10-14T19:34:13.283Z,64.41
2022-10-14T19:36:41.437Z,64.48
2022-10-14T19:39:12.687Z,64.47
2022-10-14T19:41:44.451Z,64.84
2022-10-14T19:44:12.596Z,63.79
2022-10-14T19:46:43.157Z,63.81
2022-10-14T19:49:12.965Z,63.69
2022-10-14T19:51:40.679Z,64.07
2022-10-14T19:54:09.737Z,63.30
2022-10-14T19:56:36.893Z,62.63
2022-10-14T19:59:04.715Z,62.38
2022-10-14T20:01:31.915Z,62.78
2022-10-14T20:04:01.289Z,62.56
2022-10-14T20:06:32.814Z,62.46
2022-10-14T20:09:00.084Z,63.48
2022-10-14T20:11:28.540Z,63.11
2022-10-14T20:13:55.846Z,63.03
2022-10-14T20:16:23.052Z,62.54
2022-10-14T20:18:50.237Z,62.93
2022-10-14T20:21:17.383Z,63.40
2022-10-14T20:23:45.030Z,63.33
2022-10-14T20:26:17.690Z,62.73
2022-10-14T20:28:47.379Z,63.21
2022-10-14T20:31:19.070Z,62.79
2022-10-14T20:33:46.557Z,63.17
2022-10-14T20:36:16.538Z,62.88
2022-10-14T20:38:45.532Z,63.00
2022-10-14T20:41:18.772Z,63.19
2022-10-14T20:43:52.756Z,63.45
2022-10-14T20:46:20.324Z,62.94
2022-10-14T20:48:50.417Z,63.81
2022-10-14T20:51:23.395Z,63.40
2022-10-14T20:53:56.891Z,63.26
2022-10-14T20:56:29.913Z,63.66
2022-10-14T20:59:00.073Z,63.63
2022-10-14T21:01:29.039Z,63.40
2022-10-14T21:03:56.918Z,63.64
2022-10-14T21:06:26.377Z,63.19
2022-10-14T21:08:53.522Z,63.80
2022-10-14T21:11:23.565Z,63.53
2022-10-14T21:13:54.446Z,63.76
2022-10-14T21:16:24.176Z,63.71
2022-10-14T21:18:57.843Z,64.06
2022-10-14T21:21:28.225Z,64.09
2022-10-14T21:23:56.766Z,64.33
2022-10-14T21:26:26.436Z,64.47
2022-10-14T21:28:56.003Z,64.28
2022-10-14T21:31:25.451Z,64.48
2022-10-14T21:34:00.029Z,64.12
2022-10-14T21:36:31.764Z,64.59
2022-10-14T21:39:00.910Z,64.92
2022-10-14T21:41:28.411Z,65.17
2022-10-14T21:43:58.808Z,65.76
2022-10-14T21:46:27.109Z,66.43
2022-10-14T21:48:59.987Z,65.63
2022-10-14T21:51:29.298Z,65.39
2022-10-14T21:53:57.656Z,65.56
2022-10-14T21:56:26.498Z,65.11
2022-10-14T21:58:53.897Z,65.88
2022-10-14T22:01:23.741Z,65.71
2022-10-14T22:03:56.189Z,65.76
2022-10-14T22:06:24.040Z,65.29
2022-10-14T22:08:53.624Z,64.78
2022-10-14T22:11:30.869Z,65.63
2022-10-14T22:13:59.581Z,65.85
2022-10-14T22:16:29.186Z,65.59
2022-10-14T22:18:59.256Z,66.03
2022-10-14T22:21:27.690Z,65.23
2022-10-14T22:23:56.502Z,64.68
2022-10-14T22:26:27.924Z,64.71
2022-10-14T22:29:15.583Z,65.10
2022-10-14T22:31:43.711Z,65.45
2022-10-14T22:34:15.171Z,65.05
2022-10-14T22:36:42.791Z,65.08
2022-10-14T22:39:16.158Z,65.33
2022-10-14T22:41:43.492Z,65.94
2022-10-14T22:44:11.134Z,65.42
2022-10-14T22:46:39.798Z,65.91
2022-10-14T22:49:07.002Z,66.60
2022-10-14T22:51:40.444Z,66.21
2022-10-14T22:54:10.912Z,65.23
2022-10-14T22:56:38.312Z,65.35
2022-10-14T22:59:11.290Z,64.99
2022-10-14T23:01:40.136Z,65.09
2022-10-14T23:04:07.691Z,65.19
2022-10-14T23:06:35.112Z,64.92
2022-10-14T23:09:02.868Z,65.27
2022-10-14T23:11:31.404Z,65.04
2022-10-14T23:14:00.318Z,65.26
2022-10-14T23:16:33.083Z,67.11
2022-10-14T23:19:00.178Z,66.76
2022-10-14T23:21:32.351Z,65.17
2022-10-14T23:24:01.560Z,65.91
2022-10-14T23:26:34.574Z,64.95
2022-10-14T23:29:07.382Z,64.96
2022-10-14T23:31:36.437Z,64.84
2022-10-14T23:34:10.942Z,64.58
2022-10-14T23:36:38.438Z,64.67
2022-10-14T23:39:06.028Z,64.97
2022-10-14T23:41:33.407Z,64.92
2022-10-14T23:44:00.592Z,64.60
2022-10-14T23:46:27.729Z,65.02
2022-10-14T23:49:06.761Z,64.86
2022-10-14T23:51:35.672Z,64.39
2022-10-14T23:54:03.221Z,64.74
2022-10-14T23:56:30.304Z,64.82
2022-10-14T23:58:57.356Z,65.42
